sensor_id;sensor_type;location;lat;lon;timestamp;temperature;humidity
21590;DHT22;10957;50.968;6.828;2022-11-20T00:00:16;4.00;99.90
21590;DHT22;10957;50.968;6.828;2022-11-20T00:05:17;3.60;99.90
21590;DHT22;10957;50.968;6.828;2022-11-20T00:10:18;3.80;99.90
21590;DHT22;10957;50.968;6.828;2022-11-20T00:15:19;3.70;99.90
21590;DHT22;10957;50.968;6.828;2022-11-20T00:20:20;3.80;99.90
21590;DHT22;10957;50.968;6.828;2022-11-20T00:25:20;3.50;99.90
21590;DHT22;10957;50.968;6.828;2022-11-20T00:30:21;3.60;99.90
21590;DHT22;10957;50.968;6.828;2022-11-20T00:35:22;3.50;99.90
21590;DHT22;10957;50.968;6.828;2022-11-20T00:40:23;3.40;99.90
21590;DHT22;10957;50.968;6.828;2022-11-20T00:45:23;3.60;99.90
21590;DHT22;10957;50.968;6.828;2022-11-20T00:50:24;3.40;99.90
21590;DHT22;10957;50.968;6.828;2022-11-20T00:55:26;3.70;99.90
21590;DHT22;10957;50.968;6.828;2022-11-20T01:00:27;3.60;99.90
21590;DHT22;10957;50.968;6.828;2022-11-20T01:05:27;3.50;99.90
21590;DHT22;10957;50.968;6.828;2022-11-20T01:10:28;3.40;99.90
21590;DHT22;10957;50.968;6.828;2022-11-20T01:15:29;3.10;99.90
21590;DHT22;10957;50.968;6.828;2022-11-20T01:20:30;3.40;99.90
21590;DHT22;10957;50.968;6.828;2022-11-20T01:25:34;3.70;99.90
21590;DHT22;10957;50.968;6.828;2022-11-20T01:30:35;3.30;99.90
21590;DHT22;10957;50.968;6.828;2022-11-20T01:35:35;3.50;99.90
21590;DHT22;10957;50.968;6.828;2022-11-20T01:40:36;3.60;99.90
21590;DHT22;10957;50.968;6.828;2022-11-20T01:46:00;3.00;99.90
21590;DHT22;10957;50.968;6.828;2022-11-20T01:51:02;3.40;99.90
21590;DHT22;10957;50.968;6.828;2022-11-20T01:56:09;3.40;99.90
21590;DHT22;10957;50.968;6.828;2022-11-20T02:01:11;3.40;99.90
21590;DHT22;10957;50.968;6.828;2022-11-20T02:06:49;3.40;99.90
21590;DHT22;10957;50.968;6.828;2022-11-20T02:11:42;3.60;99.90
21590;DHT22;10957;50.968;6.828;2022-11-20T02:16:47;3.60;99.90
21590;DHT22;10957;50.968;6.828;2022-11-20T02:27:15;3.70;99.90
21590;DHT22;10957;50.968;6.828;2022-11-20T02:32:28;3.50;99.90
21590;DHT22;10957;50.968;6.828;2022-11-20T02:37:32;3.70;99.90
21590;DHT22;10957;50.968;6.828;2022-11-20T02:42:36;3.50;99.90
21590;DHT22;10957;50.968;6.828;2022-11-20T02:47:37;3.00;99.90
21590;DHT22;10957;50.968;6.828;2022-11-20T02:52:37;3.00;99.90
21590;DHT22;10957;50.968;6.828;2022-11-20T02:57:38;3.10;99.90
21590;DHT22;10957;50.968;6.828;2022-11-20T03:02:39;3.40;99.90
21590;DHT22;10957;50.968;6.828;2022-11-20T03:07:39;2.90;99.90
21590;DHT22;10957;50.968;6.828;2022-11-20T03:12:40;3.40;99.90
21590;DHT22;10957;50.968;6.828;2022-11-20T03:17:41;3.70;99.90
21590;DHT22;10957;50.968;6.828;2022-11-20T03:22:41;3.40;99.90
21590;DHT22;10957;50.968;6.828;2022-11-20T03:27:42;3.50;99.90
21590;DHT22;10957;50.968;6.828;2022-11-20T03:32:43;3.50;99.90
21590;DHT22;10957;50.968;6.828;2022-11-20T03:37:44;3.40;99.90
21590;DHT22;10957;50.968;6.828;2022-11-20T03:42:46;3.50;99.90
21590;DHT22;10957;50.968;6.828;2022-11-20T03:47:46;3.30;99.90
21590;DHT22;10957;50.968;6.828;2022-11-20T03:52:47;2.90;99.90
21590;DHT22;10957;50.968;6.828;2022-11-20T03:57:48;3.40;99.90
21590;DHT22;10957;50.968;6.828;2022-11-20T04:02:49;3.30;99.90
21590;DHT22;10957;50.968;6.828;2022-11-20T04:07:49;3.10;99.90
21590;DHT22;10957;50.968;6.828;2022-11-20T04:12:50;3.10;99.90
21590;DHT22;10957;50.968;6.828;2022-11-20T04:17:51;3.00;99.90
21590;DHT22;10957;50.968;6.828;2022-11-20T04:22:53;2.90;99.90
21590;DHT22;10957;50.968;6.828;2022-11-20T04:27:55;2.70;99.90
21590;DHT22;10957;50.968;6.828;2022-11-20T04:32:55;2.90;99.90
21590;DHT22;10957;50.968;6.828;2022-11-20T04:37:56;2.70;99.90
21590;DHT22;10957;50.968;6.828;2022-11-20T04:42:57;2.70;99.90
21590;DHT22;10957;50.968;6.828;2022-11-20T04:47:57;2.90;99.90
21590;DHT22;10957;50.968;6.828;2022-11-20T04:52:58;3.20;99.90
21590;DHT22;10957;50.968;6.828;2022-11-20T04:57:59;3.00;99.90
21590;DHT22;10957;50.968;6.828;2022-11-20T05:02:59;3.20;99.90
21590;DHT22;10957;50.968;6.828;2022-11-20T05:08:00;3.00;99.90
21590;DHT22;10957;50.968;6.828;2022-11-20T05:13:01;3.20;99.90
21590;DHT22;10957;50.968;6.828;2022-11-20T05:18:02;3.10;99.90
21590;DHT22;10957;50.968;6.828;2022-11-20T05:23:02;3.30;99.90
21590;DHT22;10957;50.968;6.828;2022-11-20T05:28:03;3.30;99.90
21590;DHT22;10957;50.968;6.828;2022-11-20T05:33:04;3.50;99.90
21590;DHT22;10957;50.968;6.828;2022-11-20T05:38:05;3.40;99.90
21590;DHT22;10957;50.968;6.828;2022-11-20T05:43:05;3.40;99.90
21590;DHT22;10957;50.968;6.828;2022-11-20T05:48:06;3.30;99.90
21590;DHT22;10957;50.968;6.828;2022-11-20T05:53:07;3.40;99.90
21590;DHT22;10957;50.968;6.828;2022-11-20T05:58:07;3.50;99.90
21590;DHT22;10957;50.968;6.828;2022-11-20T06:03:08;3.30;99.90
21590;DHT22;10957;50.968;6.828;2022-11-20T06:08:09;2.90;99.90
21590;DHT22;10957;50.968;6.828;2022-11-20T06:13:09;3.40;99.90
21590;DHT22;10957;50.968;6.828;2022-11-20T06:18:10;3.40;99.90
21590;DHT22;10957;50.968;6.828;2022-11-20T06:23:11;2.90;99.90
21590;DHT22;10957;50.968;6.828;2022-11-20T06:28:11;3.60;99.90
21590;DHT22;10957;50.968;6.828;2022-11-20T06:33:12;3.60;99.90
21590;DHT22;10957;50.968;6.828;2022-11-20T06:38:13;3.10;99.90
21590;DHT22;10957;50.968;6.828;2022-11-20T06:43:14;2.90;99.90
21590;DHT22;10957;50.968;6.828;2022-11-20T06:48:14;3.40;99.90
21590;DHT22;10957;50.968;6.828;2022-11-20T06:53:15;3.40;99.90
21590;DHT22;10957;50.968;6.828;2022-11-20T06:58:16;2.90;99.90
21590;DHT22;10957;50.968;6.828;2022-11-20T07:03:17;3.30;99.90
21590;DHT22;10957;50.968;6.828;2022-11-20T07:08:18;3.60;99.90
21590;DHT22;10957;50.968;6.828;2022-11-20T07:13:19;3.20;99.90
21590;DHT22;10957;50.968;6.828;2022-11-20T07:18:19;3.40;99.90
21590;DHT22;10957;50.968;6.828;2022-11-20T07:23:21;3.60;99.90
21590;DHT22;10957;50.968;6.828;2022-11-20T07:28:22;3.40;99.90
21590;DHT22;10957;50.968;6.828;2022-11-20T07:33:23;3.20;99.90
21590;DHT22;10957;50.968;6.828;2022-11-20T07:38:23;3.70;99.90
21590;DHT22;10957;50.968;6.828;2022-11-20T07:43:24;3.60;99.90
21590;DHT22;10957;50.968;6.828;2022-11-20T07:48:25;3.70;99.90
21590;DHT22;10957;50.968;6.828;2022-11-20T07:53:26;3.70;99.90
21590;DHT22;10957;50.968;6.828;2022-11-20T07:58:29;3.70;99.90
21590;DHT22;10957;50.968;6.828;2022-11-20T08:03:30;3.90;99.90
21590;DHT22;10957;50.968;6.828;2022-11-20T08:08:30;3.90;99.90
21590;DHT22;10957;50.968;6.828;2022-11-20T08:13:31;3.90;99.90
21590;DHT22;10957;50.968;6.828;2022-11-20T08:18:51;3.90;99.90
21590;DHT22;10957;50.968;6.828;2022-11-20T08:23:51;4.10;99.90
21590;DHT22;10957;50.968;6.828;2022-11-20T08:28:56;4.20;99.90
21590;DHT22;10957;50.968;6.828;2022-11-20T08:33:57;4.30;99.90
21590;DHT22;10957;50.968;6.828;2022-11-20T08:38:58;4.30;99.90
21590;DHT22;10957;50.968;6.828;2022-11-20T08:44:01;4.30;99.90
21590;DHT22;10957;50.968;6.828;2022-11-20T08:49:06;4.40;99.90
21590;DHT22;10957;50.968;6.828;2022-11-20T08:54:08;4.60;99.90
21590;DHT22;10957;50.968;6.828;2022-11-20T08:59:08;4.60;99.90
21590;DHT22;10957;50.968;6.828;2022-11-20T09:04:09;4.70;99.90
21590;DHT22;10957;50.968;6.828;2022-11-20T09:09:10;4.60;99.90
21590;DHT22;10957;50.968;6.828;2022-11-20T09:14:11;4.60;99.90
21590;DHT22;10957;50.968;6.828;2022-11-20T09:19:11;4.10;99.90
21590;DHT22;10957;50.968;6.828;2022-11-20T09:24:12;4.70;99.90
21590;DHT22;10957;50.968;6.828;2022-11-20T09:29:13;4.70;99.90
21590;DHT22;10957;50.968;6.828;2022-11-20T09:34:14;5.00;99.90
21590;DHT22;10957;50.968;6.828;2022-11-20T09:39:14;5.00;99.90
21590;DHT22;10957;50.968;6.828;2022-11-20T09:44:29;5.10;99.90
21590;DHT22;10957;50.968;6.828;2022-11-20T09:49:57;5.10;99.90
21590;DHT22;10957;50.968;6.828;2022-11-20T09:55:02;5.20;99.90
21590;DHT22;10957;50.968;6.828;2022-11-20T10:00:04;5.30;99.90
21590;DHT22;10957;50.968;6.828;2022-11-20T10:10:21;4.70;99.90
21590;DHT22;10957;50.968;6.828;2022-11-20T10:15:38;5.10;99.90
21590;DHT22;10957;50.968;6.828;2022-11-20T10:31:45;5.30;99.90
21590;DHT22;10957;50.968;6.828;2022-11-20T10:37:01;5.00;99.90
21590;DHT22;10957;50.968;6.828;2022-11-20T10:42:09;5.80;99.90
21590;DHT22;10957;50.968;6.828;2022-11-20T10:47:16;5.70;99.90
21590;DHT22;10957;50.968;6.828;2022-11-20T10:52:48;6.00;99.90
21590;DHT22;10957;50.968;6.828;2022-11-20T10:58:03;5.80;99.90
21590;DHT22;10957;50.968;6.828;2022-11-20T11:03:23;5.60;99.90
21590;DHT22;10957;50.968;6.828;2022-11-20T11:08:26;5.60;99.90
21590;DHT22;10957;50.968;6.828;2022-11-20T11:13:30;5.60;99.90
21590;DHT22;10957;50.968;6.828;2022-11-20T11:18:33;5.50;99.90
21590;DHT22;10957;50.968;6.828;2022-11-20T11:23:43;5.60;99.90
21590;DHT22;10957;50.968;6.828;2022-11-20T11:28:59;5.90;99.90
21590;DHT22;10957;50.968;6.828;2022-11-20T11:34:15;5.50;99.90
21590;DHT22;10957;50.968;6.828;2022-11-20T11:39:18;5.60;99.90
21590;DHT22;10957;50.968;6.828;2022-11-20T11:44:26;5.60;99.90
21590;DHT22;10957;50.968;6.828;2022-11-20T11:49:46;5.70;99.90
21590;DHT22;10957;50.968;6.828;2022-11-20T11:54:55;5.40;99.90
21590;DHT22;10957;50.968;6.828;2022-11-20T12:00:13;5.50;99.90
21590;DHT22;10957;50.968;6.828;2022-11-20T12:05:38;5.50;99.90
21590;DHT22;10957;50.968;6.828;2022-11-20T12:15:50;5.50;99.90
21590;DHT22;10957;50.968;6.828;2022-11-20T12:32:18;5.60;99.90
21590;DHT22;10957;50.968;6.828;2022-11-20T12:48:43;6.00;99.90
21590;DHT22;10957;50.968;6.828;2022-11-20T13:09:34;6.30;99.90
21590;DHT22;10957;50.968;6.828;2022-11-20T13:19:38;6.20;99.90
21590;DHT22;10957;50.968;6.828;2022-11-20T13:25:09;6.30;99.90
21590;DHT22;10957;50.968;6.828;2022-11-20T13:30:15;6.40;99.90
21590;DHT22;10957;50.968;6.828;2022-11-20T13:35:35;6.50;99.90
21590;DHT22;10957;50.968;6.828;2022-11-20T13:40:57;6.30;99.90
21590;DHT22;10957;50.968;6.828;2022-11-20T13:46:06;6.40;99.90
21590;DHT22;10957;50.968;6.828;2022-11-20T13:51:29;6.10;99.90
21590;DHT22;10957;50.968;6.828;2022-11-20T14:01:54;6.40;99.90
21590;DHT22;10957;50.968;6.828;2022-11-20T14:06:55;6.30;99.90
21590;DHT22;10957;50.968;6.828;2022-11-20T14:11:56;6.30;99.90
21590;DHT22;10957;50.968;6.828;2022-11-20T14:17:17;5.70;99.90
21590;DHT22;10957;50.968;6.828;2022-11-20T14:22:26;6.20;99.90
21590;DHT22;10957;50.968;6.828;2022-11-20T14:27:26;5.90;99.90
21590;DHT22;10957;50.968;6.828;2022-11-20T14:32:29;6.30;99.90
21590;DHT22;10957;50.968;6.828;2022-11-20T14:37:33;6.20;99.90
21590;DHT22;10957;50.968;6.828;2022-11-20T14:42:34;6.30;99.90
21590;DHT22;10957;50.968;6.828;2022-11-20T14:47:35;6.20;99.90
21590;DHT22;10957;50.968;6.828;2022-11-20T14:52:36;5.90;99.90
21590;DHT22;10957;50.968;6.828;2022-11-20T14:57:36;6.40;99.90
21590;DHT22;10957;50.968;6.828;2022-11-20T15:02:45;6.00;99.90
21590;DHT22;10957;50.968;6.828;2022-11-20T15:07:49;5.70;99.90
21590;DHT22;10957;50.968;6.828;2022-11-20T15:12:55;5.70;99.90
21590;DHT22;10957;50.968;6.828;2022-11-20T15:17:58;6.20;99.90
21590;DHT22;10957;50.968;6.828;2022-11-20T15:22:59;5.90;99.90
21590;DHT22;10957;50.968;6.828;2022-11-20T15:27:59;5.90;99.90
21590;DHT22;10957;50.968;6.828;2022-11-20T15:33:00;6.20;99.90
21590;DHT22;10957;50.968;6.828;2022-11-20T15:38:01;5.60;99.90
21590;DHT22;10957;50.968;6.828;2022-11-20T15:43:02;5.90;99.90
21590;DHT22;10957;50.968;6.828;2022-11-20T15:48:03;5.70;99.90
21590;DHT22;10957;50.968;6.828;2022-11-20T15:53:05;6.30;99.90
21590;DHT22;10957;50.968;6.828;2022-11-20T15:58:06;6.20;99.90
21590;DHT22;10957;50.968;6.828;2022-11-20T16:03:10;6.30;99.90
21590;DHT22;10957;50.968;6.828;2022-11-20T16:08:11;5.80;99.90
21590;DHT22;10957;50.968;6.828;2022-11-20T16:13:16;6.30;99.90
21590;DHT22;10957;50.968;6.828;2022-11-20T16:18:36;6.30;99.90
21590;DHT22;10957;50.968;6.828;2022-11-20T16:23:37;6.40;99.90
21590;DHT22;10957;50.968;6.828;2022-11-20T16:28:38;6.50;99.90
21590;DHT22;10957;50.968;6.828;2022-11-20T16:33:39;6.40;99.90
21590;DHT22;10957;50.968;6.828;2022-11-20T16:38:40;6.60;99.90
21590;DHT22;10957;50.968;6.828;2022-11-20T16:44:08;6.50;99.90
21590;DHT22;10957;50.968;6.828;2022-11-20T16:49:12;6.70;99.90
21590;DHT22;10957;50.968;6.828;2022-11-20T16:54:14;6.80;99.90
21590;DHT22;10957;50.968;6.828;2022-11-20T16:59:14;6.70;99.90
21590;DHT22;10957;50.968;6.828;2022-11-20T17:04:16;6.80;99.90
21590;DHT22;10957;50.968;6.828;2022-11-20T17:09:17;6.80;99.90
21590;DHT22;10957;50.968;6.828;2022-11-20T17:14:18;6.40;99.90
21590;DHT22;10957;50.968;6.828;2022-11-20T17:19:19;6.50;99.90
21590;DHT22;10957;50.968;6.828;2022-11-20T17:24:20;7.00;99.90
21590;DHT22;10957;50.968;6.828;2022-11-20T17:29:20;7.20;99.90
21590;DHT22;10957;50.968;6.828;2022-11-20T17:34:23;7.10;99.90
21590;DHT22;10957;50.968;6.828;2022-11-20T17:39:24;6.50;99.90
21590;DHT22;10957;50.968;6.828;2022-11-20T17:44:25;7.10;99.90
21590;DHT22;10957;50.968;6.828;2022-11-20T17:49:25;6.80;99.90
21590;DHT22;10957;50.968;6.828;2022-11-20T17:54:26;7.20;99.90
21590;DHT22;10957;50.968;6.828;2022-11-20T17:59:27;7.20;99.90
21590;DHT22;10957;50.968;6.828;2022-11-20T18:04:27;7.20;99.90
21590;DHT22;10957;50.968;6.828;2022-11-20T18:09:28;7.30;99.90
21590;DHT22;10957;50.968;6.828;2022-11-20T18:14:29;7.40;99.90
21590;DHT22;10957;50.968;6.828;2022-11-20T18:19:37;7.00;99.90
21590;DHT22;10957;50.968;6.828;2022-11-20T18:24:38;7.40;99.90
21590;DHT22;10957;50.968;6.828;2022-11-20T18:29:39;7.40;99.90
21590;DHT22;10957;50.968;6.828;2022-11-20T18:34:39;7.50;99.90
21590;DHT22;10957;50.968;6.828;2022-11-20T18:39:40;7.30;99.90
21590;DHT22;10957;50.968;6.828;2022-11-20T18:44:41;7.10;99.90
21590;DHT22;10957;50.968;6.828;2022-11-20T18:49:53;7.20;99.90
21590;DHT22;10957;50.968;6.828;2022-11-20T18:54:55;7.60;99.90
21590;DHT22;10957;50.968;6.828;2022-11-20T18:59:57;7.70;99.90
21590;DHT22;10957;50.968;6.828;2022-11-20T19:05:01;8.00;99.90
21590;DHT22;10957;50.968;6.828;2022-11-20T19:10:04;8.10;99.90
21590;DHT22;10957;50.968;6.828;2022-11-20T19:15:05;8.20;99.90
21590;DHT22;10957;50.968;6.828;2022-11-20T19:20:06;8.50;99.90
21590;DHT22;10957;50.968;6.828;2022-11-20T19:25:08;8.50;99.90
21590;DHT22;10957;50.968;6.828;2022-11-20T19:30:09;8.10;99.90
21590;DHT22;10957;50.968;6.828;2022-11-20T19:35:10;8.50;99.90
21590;DHT22;10957;50.968;6.828;2022-11-20T19:40:11;8.60;99.90
21590;DHT22;10957;50.968;6.828;2022-11-20T19:45:11;8.50;99.90
21590;DHT22;10957;50.968;6.828;2022-11-20T19:50:12;8.50;99.90
21590;DHT22;10957;50.968;6.828;2022-11-20T19:55:13;8.50;99.90
21590;DHT22;10957;50.968;6.828;2022-11-20T20:00:14;8.50;99.90
21590;DHT22;10957;50.968;6.828;2022-11-20T20:05:15;8.40;99.90
21590;DHT22;10957;50.968;6.828;2022-11-20T20:10:16;8.40;99.90
21590;DHT22;10957;50.968;6.828;2022-11-20T20:15:17;8.60;99.90
21590;DHT22;10957;50.968;6.828;2022-11-20T20:20:18;8.40;99.90
21590;DHT22;10957;50.968;6.828;2022-11-20T20:25:19;8.20;99.90
21590;DHT22;10957;50.968;6.828;2022-11-20T20:30:19;8.20;99.90
21590;DHT22;10957;50.968;6.828;2022-11-20T20:35:20;8.10;99.90
21590;DHT22;10957;50.968;6.828;2022-11-20T20:40:21;8.10;99.90
21590;DHT22;10957;50.968;6.828;2022-11-20T20:45:22;8.30;99.90
21590;DHT22;10957;50.968;6.828;2022-11-20T20:50:23;8.30;99.90
21590;DHT22;10957;50.968;6.828;2022-11-20T20:55:23;8.40;99.90
21590;DHT22;10957;50.968;6.828;2022-11-20T21:00:25;8.30;99.90
21590;DHT22;10957;50.968;6.828;2022-11-20T21:05:26;8.20;99.90
21590;DHT22;10957;50.968;6.828;2022-11-20T21:10:26;8.00;99.90
21590;DHT22;10957;50.968;6.828;2022-11-20T21:15:27;8.00;99.90
21590;DHT22;10957;50.968;6.828;2022-11-20T21:20:28;8.10;99.90
21590;DHT22;10957;50.968;6.828;2022-11-20T21:25:47;8.00;99.90
21590;DHT22;10957;50.968;6.828;2022-11-20T21:30:48;8.00;99.90
21590;DHT22;10957;50.968;6.828;2022-11-20T21:35:48;7.40;99.90
21590;DHT22;10957;50.968;6.828;2022-11-20T21:40:49;7.50;99.90
21590;DHT22;10957;50.968;6.828;2022-11-20T21:45:50;7.50;99.90
21590;DHT22;10957;50.968;6.828;2022-11-20T21:51:00;7.40;99.90
21590;DHT22;10957;50.968;6.828;2022-11-20T21:56:01;7.80;99.90
21590;DHT22;10957;50.968;6.828;2022-11-20T22:06:11;7.50;99.90
21590;DHT22;10957;50.968;6.828;2022-11-20T22:11:14;8.10;99.90
21590;DHT22;10957;50.968;6.828;2022-11-20T22:16:15;7.40;99.90
21590;DHT22;10957;50.968;6.828;2022-11-20T22:21:18;7.90;99.90
21590;DHT22;10957;50.968;6.828;2022-11-20T22:26:24;7.90;99.90
21590;DHT22;10957;50.968;6.828;2022-11-20T22:31:28;7.80;99.90
21590;DHT22;10957;50.968;6.828;2022-11-20T22:36:30;7.70;99.90
21590;DHT22;10957;50.968;6.828;2022-11-20T22:41:31;7.90;99.90
21590;DHT22;10957;50.968;6.828;2022-11-20T22:46:33;7.50;99.90
21590;DHT22;10957;50.968;6.828;2022-11-20T22:51:38;7.80;99.90
21590;DHT22;10957;50.968;6.828;2022-11-20T22:56:39;8.00;99.90
21590;DHT22;10957;50.968;6.828;2022-11-20T23:01:40;7.70;99.90
21590;DHT22;10957;50.968;6.828;2022-11-20T23:06:41;7.90;99.90
21590;DHT22;10957;50.968;6.828;2022-11-20T23:11:42;7.70;99.90
21590;DHT22;10957;50.968;6.828;2022-11-20T23:16:43;7.40;99.90
21590;DHT22;10957;50.968;6.828;2022-11-20T23:21:43;7.90;99.90
21590;DHT22;10957;50.968;6.828;2022-11-20T23:26:44;7.90;99.90
21590;DHT22;10957;50.968;6.828;2022-11-20T23:31:47;7.70;99.90
21590;DHT22;10957;50.968;6.828;2022-11-20T23:36:48;7.80;99.90
21590;DHT22;10957;50.968;6.828;2022-11-20T23:41:48;7.90;99.90
21590;DHT22;10957;50.968;6.828;2022-11-20T23:46:49;7.90;99.90
21590;DHT22;10957;50.968;6.828;2022-11-20T23:51:50;7.70;99.90
21590;DHT22;10957;50.968;6.828;2022-11-20T23:56:50;7.80;99.90
